createdAt,value
2023-01-13T05:08:15.832Z,69.59
2023-01-13T05:10:18.985Z,69.03
2023-01-13T05:12:39.397Z,68.75
2023-01-13T05:14:59.381Z,68.46
2023-01-13T05:17:02.475Z,68.12
2023-01-13T05:19:05.135Z,68.01
2023-01-13T05:21:28.567Z,67.47
2023-01-13T05:23:49.875Z,67.78
2023-01-13T05:25:51.913Z,67.75
2023-01-13T05:27:56.352Z,67.52
2023-01-13T05:29:59.274Z,67.27
2023-01-13T05:32:02.624Z,67.52
2023-01-13T05:34:05.417Z,67.33
2023-01-13T05:36:09.035Z,67.00
2023-01-13T05:38:12.675Z,67.08
2023-01-13T05:40:39.600Z,67.21
2023-01-13T05:42:59.946Z,66.85
2023-01-13T05:45:02.715Z,67.26
2023-01-13T05:47:05.864Z,66.92
2023-01-13T05:49:11.364Z,66.94
2023-01-13T05:51:14.818Z,67.24
2023-01-13T05:53:18.648Z,66.82
2023-01-13T05:55:22.732Z,66.83
2023-01-13T05:57:26.385Z,66.49
2023-01-13T05:59:29.063Z,66.63
2023-01-13T06:01:32.043Z,66.84
2023-01-13T06:03:35.592Z,66.53
2023-01-13T06:05:38.793Z,66.68
2023-01-13T06:07:42.057Z,66.82
2023-01-13T06:09:44.670Z,66.63
2023-01-13T06:11:48.741Z,66.55
2023-01-13T06:13:51.348Z,66.23
2023-01-13T06:15:57.563Z,66.34
2023-01-13T06:18:02.703Z,66.42
2023-01-13T06:20:08.184Z,66.39
2023-01-13T06:22:14.533Z,66.47
2023-01-13T06:24:17.369Z,66.55
2023-01-13T06:26:22.115Z,66.48
2023-01-13T06:28:26.109Z,66.46
2023-01-13T06:30:31.867Z,66.32
2023-01-13T06:32:39.698Z,66.38
2023-01-13T06:34:45.350Z,66.39
2023-01-13T06:36:53.262Z,66.21
2023-01-13T06:39:00.706Z,66.11
2023-01-13T06:41:03.714Z,66.35
2023-01-13T06:43:17.780Z,66.11
2023-01-13T06:45:22.790Z,66.08
2023-01-13T06:47:25.509Z,66.13
2023-01-13T06:49:28.243Z,66.26
2023-01-13T06:51:30.881Z,66.13
2023-01-13T06:53:33.582Z,66.10
2023-01-13T06:55:36.427Z,66.10
2023-01-13T06:57:49.175Z,65.91
2023-01-13T06:59:51.993Z,66.15
2023-01-13T07:01:56.226Z,66.00
2023-01-13T07:03:59.123Z,66.21
2023-01-13T07:06:02.179Z,66.07
2023-01-13T07:08:05.592Z,65.94
2023-01-13T07:10:11.253Z,66.17
2023-01-13T07:12:13.912Z,65.93
2023-01-13T07:14:33.416Z,65.94
2023-01-13T07:16:36.131Z,66.39
2023-01-13T07:18:40.616Z,66.01
2023-01-13T07:20:43.332Z,65.86
2023-01-13T07:22:46.343Z,66.17
2023-01-13T07:24:49.077Z,66.22
2023-01-13T07:26:52.301Z,66.17
2023-01-13T07:28:55.068Z,65.94
2023-01-13T07:30:58.608Z,66.27
2023-01-13T07:33:01.355Z,66.09
2023-01-13T07:35:06.384Z,66.38
2023-01-13T07:37:09.150Z,65.90
2023-01-13T07:39:11.927Z,66.04
2023-01-13T07:41:33.342Z,66.19
2023-01-13T07:43:36.097Z,66.22
2023-01-13T07:45:39.712Z,66.30
2023-01-13T07:47:42.417Z,65.95
2023-01-13T07:49:45.087Z,65.83
2023-01-13T07:51:49.205Z,66.01
2023-01-13T07:53:52.037Z,65.76
2023-01-13T07:55:57.386Z,66.06
2023-01-13T07:58:00.198Z,66.05
2023-01-13T08:00:03.703Z,66.11
2023-01-13T08:02:06.641Z,66.03
2023-01-13T08:04:09.998Z,66.07
2023-01-13T08:06:13.592Z,65.97
2023-01-13T08:08:18.147Z,66.24
2023-01-13T08:10:20.929Z,66.26
2023-01-13T08:12:40.935Z,66.05
2023-01-13T08:14:55.999Z,65.68
2023-01-13T08:16:58.965Z,65.82
2023-01-13T08:19:04.113Z,65.80
2023-01-13T08:21:09.073Z,65.82
2023-01-13T08:23:11.876Z,65.55
2023-01-13T08:25:16.129Z,66.10
2023-01-13T08:27:20.186Z,66.04
2023-01-13T08:29:23.076Z,66.00
2023-01-13T08:31:25.859Z,65.75
2023-01-13T08:33:29.080Z,65.88
2023-01-13T08:35:31.886Z,66.17
2023-01-13T08:37:34.533Z,66.14
2023-01-13T08:39:37.419Z,65.60
2023-01-13T08:41:56.759Z,65.89
2023-01-13T08:43:59.479Z,65.97
2023-01-13T08:46:06.783Z,65.85
2023-01-13T08:48:09.804Z,65.96
2023-01-13T08:50:13.171Z,65.67
2023-01-13T08:52:16.235Z,65.51
2023-01-13T08:54:19.610Z,65.93
2023-01-13T08:56:22.425Z,65.57
2023-01-13T08:58:26.737Z,66.06
2023-01-13T09:00:29.518Z,66.11
2023-01-13T09:02:32.341Z,66.04
2023-01-13T09:04:35.650Z,66.00
2023-01-13T09:06:38.330Z,65.71
2023-01-13T09:08:41.125Z,65.68
2023-01-13T09:10:46.068Z,66.08
2023-01-13T09:13:06.155Z,65.86
2023-01-13T09:15:11.207Z,65.67
2023-01-13T09:17:14.715Z,65.79
2023-01-13T09:19:17.688Z,65.56
2023-01-13T09:21:21.043Z,65.95
2023-01-13T09:23:23.855Z,65.66
2023-01-13T09:25:26.692Z,65.66
2023-01-13T09:27:29.548Z,65.84
2023-01-13T09:29:32.557Z,65.85
2023-01-13T09:31:36.865Z,65.79
2023-01-13T09:33:57.211Z,65.43
2023-01-13T09:36:01.127Z,65.52
2023-01-13T09:38:03.891Z,65.57
2023-01-13T09:40:10.407Z,65.41
2023-01-13T09:42:38.014Z,65.24
2023-01-13T09:44:46.627Z,65.50
2023-01-13T09:46:54.375Z,65.18
2023-01-13T09:48:58.840Z,65.53
2023-01-13T09:51:06.860Z,65.64
2023-01-13T09:53:16.184Z,65.35
2023-01-13T09:55:24.392Z,65.27
2023-01-13T09:57:30.129Z,65.66
2023-01-13T09:59:36.339Z,65.64
2023-01-13T10:01:47.450Z,65.79
2023-01-13T10:03:51.935Z,65.41
2023-01-13T10:05:59.651Z,65.69
2023-01-13T10:08:09.870Z,65.59
2023-01-13T10:10:19.087Z,65.38
2023-01-13T10:12:43.616Z,65.49
2023-01-13T10:14:52.927Z,65.45
2023-01-13T10:17:11.744Z,65.53
2023-01-13T10:19:22.815Z,65.30
2023-01-13T10:21:44.459Z,65.38
2023-01-13T10:23:57.724Z,65.46
2023-01-13T10:26:13.021Z,65.65
2023-01-13T10:28:20.710Z,65.58
2023-01-13T10:30:32.388Z,65.42
2023-01-13T10:32:35.205Z,65.42
2023-01-13T10:34:49.510Z,65.27
2023-01-13T10:37:04.070Z,65.29
2023-01-13T10:39:10.985Z,65.32
2023-01-13T10:41:20.753Z,65.45
2023-01-13T10:43:26.778Z,65.49
2023-01-13T10:45:29.508Z,65.60
2023-01-13T10:47:35.503Z,65.66
2023-01-13T10:49:39.193Z,65.34
2023-01-13T10:51:45.773Z,65.37
2023-01-13T10:53:53.949Z,65.44
2023-01-13T10:56:01.698Z,65.15
2023-01-13T10:58:13.444Z,65.51
2023-01-13T11:00:28.205Z,65.03
2023-01-13T11:02:32.443Z,65.03
2023-01-13T11:04:37.731Z,65.39
2023-01-13T11:06:47.941Z,65.43
2023-01-13T11:08:55.148Z,65.36
2023-01-13T11:11:00.514Z,65.38
2023-01-13T11:13:08.589Z,65.33
2023-01-13T11:15:18.559Z,65.05
2023-01-13T11:17:32.158Z,65.45
2023-01-13T11:19:38.065Z,65.19
2023-01-13T11:21:49.818Z,65.22
2023-01-13T11:24:05.063Z,65.34
2023-01-13T11:26:14.360Z,65.33
2023-01-13T11:28:28.840Z,65.34
2023-01-13T11:30:39.204Z,65.47
2023-01-13T11:32:53.545Z,65.17
2023-01-13T11:35:01.436Z,65.12
2023-01-13T11:37:11.505Z,65.33
2023-01-13T11:39:25.021Z,65.05
2023-01-13T11:41:44.093Z,65.07
2023-01-13T11:43:52.289Z,65.09
2023-01-13T11:45:58.672Z,65.31
2023-01-13T11:48:03.413Z,65.27
2023-01-13T11:50:17.580Z,65.33
2023-01-13T11:52:25.156Z,65.00
2023-01-13T11:54:49.110Z,65.25
2023-01-13T11:57:25.278Z,65.44
2023-01-13T11:59:58.472Z,65.05
2023-01-13T12:02:20.385Z,65.11
2023-01-13T12:04:29.121Z,65.18
2023-01-13T12:06:35.983Z,65.24
2023-01-13T12:08:55.840Z,65.18
2023-01-13T12:11:12.299Z,65.13
2023-01-13T12:13:26.801Z,64.92
2023-01-13T12:15:50.174Z,64.99
2023-01-13T12:18:07.435Z,65.18
2023-01-13T12:20:21.256Z,65.17
2023-01-13T12:22:27.712Z,64.94
2023-01-13T12:24:35.494Z,65.28
2023-01-13T12:26:44.836Z,64.95
2023-01-13T12:28:52.231Z,64.87
2023-01-13T12:31:00.195Z,65.20
2023-01-13T12:33:18.756Z,65.13
2023-01-13T12:35:37.700Z,65.20
2023-01-13T12:37:48.552Z,65.03
2023-01-13T12:40:03.004Z,64.95
2023-01-13T12:42:34.234Z,65.15
2023-01-13T12:44:36.947Z,64.99
2023-01-13T12:46:55.939Z,65.16
2023-01-13T12:49:09.778Z,65.11
2023-01-13T12:51:23.351Z,64.88
2023-01-13T12:53:31.892Z,64.90
2023-01-13T12:55:36.853Z,65.21
2023-01-13T12:57:41.212Z,64.75
2023-01-13T12:59:49.919Z,65.14
2023-01-13T13:02:15.674Z,64.97
2023-01-13T13:04:21.697Z,64.89
2023-01-13T13:06:30.346Z,64.54
2023-01-13T13:08:54.383Z,64.46
2023-01-13T13:11:03.027Z,64.34
2023-01-13T13:13:19.949Z,64.54
2023-01-13T13:15:24.528Z,64.58
2023-01-13T13:17:46.799Z,64.36
2023-01-13T13:19:50.924Z,64.62
2023-01-13T13:22:19.897Z,64.19
2023-01-13T13:24:22.789Z,64.19
2023-01-13T13:26:40.229Z,64.22
2023-01-13T13:28:49.915Z,64.16
2023-01-13T13:31:22.503Z,64.23
2023-01-13T13:33:45.179Z,64.03
2023-01-13T13:36:02.701Z,64.05
2023-01-13T13:38:40.039Z,63.92
2023-01-13T13:41:03.645Z,63.43
2023-01-13T13:43:29.676Z,63.37
2023-01-13T13:45:50.106Z,63.34
2023-01-13T13:47:52.915Z,63.66
2023-01-13T13:49:56.584Z,63.40
2023-01-13T13:52:05.339Z,63.16
2023-01-13T13:54:11.556Z,63.08
2023-01-13T13:56:20.438Z,63.02
2023-01-13T13:58:23.855Z,63.07
2023-01-13T14:00:30.164Z,62.76
2023-01-13T14:02:38.037Z,63.24
2023-01-13T14:04:41.515Z,62.54
2023-01-13T14:06:51.861Z,62.75
2023-01-13T14:08:55.811Z,62.78
2023-01-13T14:10:58.689Z,62.84
2023-01-13T14:13:03.905Z,62.69
2023-01-13T14:15:07.317Z,62.26
2023-01-13T14:17:21.012Z,62.36
2023-01-13T14:19:30.255Z,62.20
2023-01-13T14:21:32.925Z,62.19
2023-01-13T14:23:35.762Z,62.13
2023-01-13T14:25:47.995Z,62.18
2023-01-13T14:27:50.941Z,62.20
2023-01-13T14:29:54.805Z,62.39
2023-01-13T14:31:58.674Z,62.58
2023-01-13T14:34:32.084Z,62.24
2023-01-13T14:36:38.064Z,62.25
2023-01-13T14:38:40.953Z,62.52
2023-01-13T14:40:46.816Z,62.34
2023-01-13T14:43:00.175Z,62.30
2023-01-13T14:45:03.375Z,62.31
2023-01-13T14:47:20.715Z,62.50
2023-01-13T14:49:28.198Z,62.63
2023-01-13T14:51:31.980Z,62.42
2023-01-13T14:53:40.161Z,62.53
2023-01-13T14:55:42.876Z,62.81
2023-01-13T14:57:47.013Z,62.36
2023-01-13T14:59:57.413Z,62.52
2023-01-13T15:02:00.599Z,62.37
2023-01-13T15:04:25.574Z,62.68
2023-01-13T15:06:28.335Z,62.70
2023-01-13T15:08:36.881Z,62.32
2023-01-13T15:10:48.159Z,62.77
2023-01-13T15:12:54.058Z,62.48
2023-01-13T15:14:57.320Z,62.50
2023-01-13T15:17:00.067Z,62.40
2023-01-13T15:19:03.340Z,62.61
2023-01-13T15:21:06.449Z,62.74
2023-01-13T15:23:09.307Z,62.71
2023-01-13T15:25:15.220Z,62.63
2023-01-13T15:27:21.288Z,62.35
2023-01-13T15:29:25.321Z,62.53
2023-01-13T15:31:29.630Z,62.55
2023-01-13T15:33:32.324Z,62.62
2023-01-13T15:35:35.396Z,62.99
2023-01-13T15:37:38.444Z,62.47
2023-01-13T15:39:40.956Z,62.87
2023-01-13T15:42:01.354Z,62.64
2023-01-13T15:44:21.844Z,62.76
2023-01-13T15:46:41.312Z,62.53
2023-01-13T15:48:43.951Z,62.54
2023-01-13T15:50:48.093Z,62.74
2023-01-13T15:52:51.094Z,62.63
2023-01-13T15:54:54.855Z,62.81
2023-01-13T15:56:57.787Z,62.92
2023-01-13T15:59:00.628Z,62.79
2023-01-13T16:01:03.308Z,62.37
2023-01-13T16:03:07.618Z,62.29
2023-01-13T16:05:10.841Z,62.41
2023-01-13T16:07:17.243Z,62.20
2023-01-13T16:09:19.940Z,62.14
2023-01-13T16:11:22.671Z,62.41
2023-01-13T16:13:25.291Z,62.21
2023-01-13T16:15:28.076Z,62.34
2023-01-13T16:17:34.270Z,62.12
2023-01-13T16:19:38.235Z,61.99
2023-01-13T16:21:41.166Z,62.04
2023-01-13T16:23:44.095Z,61.75
2023-01-13T16:25:47.669Z,61.93
2023-01-13T16:27:50.932Z,61.88
2023-01-13T16:29:54.073Z,61.84
2023-01-13T16:31:56.716Z,61.66
2023-01-13T16:34:00.229Z,61.76
2023-01-13T16:36:12.599Z,61.66
2023-01-13T16:38:16.523Z,61.33
2023-01-13T16:40:24.038Z,61.28
2023-01-13T16:42:26.730Z,61.68
2023-01-13T16:44:29.340Z,61.38
2023-01-13T16:46:33.343Z,61.15
2023-01-13T16:48:36.046Z,61.39
2023-01-13T16:50:40.903Z,61.15
2023-01-13T16:52:44.915Z,61.19
2023-01-13T16:54:47.874Z,61.27
2023-01-13T16:56:50.524Z,61.54
2023-01-13T16:58:54.716Z,60.98
2023-01-13T17:00:57.416Z,61.33
2023-01-13T17:03:01.901Z,61.24
2023-01-13T17:05:04.776Z,61.16
2023-01-13T17:07:10.344Z,61.27
2023-01-13T17:09:18.110Z,61.09
2023-01-13T17:11:21.609Z,61.03
2023-01-13T17:13:24.442Z,60.82
2023-01-13T17:15:27.238Z,60.85
2023-01-13T17:17:29.986Z,61.20
2023-01-13T17:19:32.792Z,60.77
2023-01-13T17:21:35.413Z,60.99
2023-01-13T17:23:38.087Z,60.99
2023-01-13T17:25:42.087Z,60.76
2023-01-13T17:27:44.728Z,60.84
2023-01-13T17:29:47.552Z,60.37
2023-01-13T17:31:50.351Z,60.61
2023-01-13T17:33:53.070Z,60.58
2023-01-13T17:35:55.740Z,60.35
2023-01-13T17:37:58.488Z,60.38
2023-01-13T17:40:01.879Z,60.30
2023-01-13T17:42:06.085Z,60.55
2023-01-13T17:44:08.807Z,60.15
2023-01-13T17:46:12.454Z,60.04
2023-01-13T17:48:15.184Z,60.18
2023-01-13T17:50:18.019Z,60.03
2023-01-13T17:52:21.359Z,59.94
2023-01-13T17:54:24.296Z,60.08
2023-01-13T17:56:27.079Z,60.04
2023-01-13T17:58:31.184Z,60.02
2023-01-13T18:00:34.504Z,59.79
2023-01-13T18:02:37.227Z,59.29
2023-01-13T18:04:40.169Z,59.18
2023-01-13T18:06:43.015Z,59.24
2023-01-13T18:08:46.576Z,58.70
2023-01-13T18:10:52.887Z,58.87
2023-01-13T18:12:56.147Z,58.54
2023-01-13T18:15:00.460Z,58.23
2023-01-13T18:17:03.270Z,58.34
2023-01-13T18:19:23.641Z,58.40
2023-01-13T18:21:44.933Z,57.96
2023-01-13T18:24:05.214Z,57.72
2023-01-13T18:26:34.264Z,57.47
2023-01-13T18:28:37.048Z,57.45
2023-01-13T18:30:41.235Z,57.58
2023-01-13T18:32:43.929Z,57.09
2023-01-13T18:34:47.919Z,57.05
2023-01-13T18:36:50.618Z,56.73
2023-01-13T18:38:53.472Z,56.70
2023-01-13T18:40:56.139Z,56.98
2023-01-13T18:42:59.146Z,56.94
2023-01-13T18:45:02.006Z,56.54
2023-01-13T18:47:06.113Z,56.33
2023-01-13T18:49:08.784Z,56.06
2023-01-13T18:51:11.654Z,56.46
2023-01-13T18:53:14.345Z,55.89
2023-01-13T18:55:17.589Z,56.10
2023-01-13T18:57:21.384Z,56.03
2023-01-13T18:59:25.944Z,55.64
2023-01-13T19:01:29.899Z,55.79
2023-01-13T19:03:34.028Z,55.86
2023-01-13T19:05:38.240Z,56.14
2023-01-13T19:07:43.112Z,56.40
2023-01-13T19:09:45.724Z,55.90
2023-01-13T19:11:48.397Z,56.26
2023-01-13T19:13:51.908Z,56.58
2023-01-13T19:15:54.562Z,56.29
2023-01-13T19:17:57.297Z,56.23
2023-01-13T19:20:01.702Z,56.31
2023-01-13T19:22:04.420Z,56.50
2023-01-13T19:24:07.595Z,56.46
2023-01-13T19:26:12.127Z,56.46
2023-01-13T19:28:15.384Z,56.94
2023-01-13T19:30:18.417Z,56.83
2023-01-13T19:32:22.431Z,56.88
2023-01-13T19:34:25.437Z,56.97
2023-01-13T19:36:29.544Z,56.97
2023-01-13T19:38:32.663Z,56.86
2023-01-13T19:40:35.476Z,56.73
2023-01-13T19:42:54.754Z,56.59
2023-01-13T19:45:15.099Z,56.44
2023-01-13T19:47:18.271Z,56.32
2023-01-13T19:49:20.924Z,56.39
2023-01-13T19:51:23.543Z,56.14
2023-01-13T19:53:28.048Z,56.30
2023-01-13T19:55:31.721Z,56.04
2023-01-13T19:57:34.607Z,56.34
2023-01-13T19:59:40.857Z,56.15
2023-01-13T20:01:43.787Z,56.57
2023-01-13T20:03:46.995Z,56.42
2023-01-13T20:05:49.614Z,56.19
2023-01-13T20:07:52.679Z,56.50
2023-01-13T20:09:57.346Z,56.28
2023-01-13T20:12:00.780Z,56.35
2023-01-13T20:14:03.787Z,56.76
2023-01-13T20:16:06.839Z,56.38
2023-01-13T20:18:10.400Z,56.59
2023-01-13T20:20:14.892Z,56.48
2023-01-13T20:22:17.514Z,56.53
2023-01-13T20:24:20.342Z,56.62
2023-01-13T20:26:24.405Z,56.73
2023-01-13T20:28:27.984Z,56.70
2023-01-13T20:30:30.626Z,56.69
2023-01-13T20:32:33.267Z,56.49
2023-01-13T20:34:36.034Z,56.61
2023-01-13T20:36:43.209Z,56.45
2023-01-13T20:38:45.938Z,56.76
2023-01-13T20:40:48.712Z,56.53
2023-01-13T20:42:52.586Z,56.37
2023-01-13T20:44:55.265Z,56.38
2023-01-13T20:46:59.005Z,56.45
2023-01-13T20:49:01.676Z,56.69
2023-01-13T20:51:04.778Z,56.66
2023-01-13T20:53:07.434Z,56.69
2023-01-13T20:55:11.032Z,56.73
2023-01-13T20:57:13.763Z,56.35
2023-01-13T20:59:18.982Z,56.86
2023-01-13T21:01:21.784Z,56.76
2023-01-13T21:03:24.442Z,56.63
2023-01-13T21:05:28.251Z,56.56
2023-01-13T21:07:30.978Z,56.96
2023-01-13T21:09:33.655Z,56.49
2023-01-13T21:11:54.203Z,56.85
2023-01-13T21:14:14.718Z,57.02
2023-01-13T21:16:18.819Z,56.97
2023-01-13T21:18:39.216Z,56.95
2023-01-13T21:20:41.970Z,57.16
2023-01-13T21:22:46.361Z,56.67
2023-01-13T21:24:49.060Z,56.72
2023-01-13T21:26:54.527Z,56.80
2023-01-13T21:28:58.492Z,56.85
2023-01-13T21:31:03.324Z,56.83
2023-01-13T21:33:07.440Z,57.12
2023-01-13T21:35:10.560Z,57.22
2023-01-13T21:37:14.748Z,57.21
2023-01-13T21:39:17.482Z,57.11
2023-01-13T21:41:41.004Z,56.86
2023-01-13T21:44:01.324Z,56.74
2023-01-13T21:46:33.336Z,57.15
2023-01-13T21:48:37.344Z,56.71
2023-01-13T21:50:40.313Z,56.76
2023-01-13T21:52:43.493Z,56.77
2023-01-13T21:55:03.729Z,57.20
2023-01-13T21:57:06.404Z,57.11
2023-01-13T21:59:09.237Z,57.14
2023-01-13T22:01:12.256Z,57.17
2023-01-13T22:03:15.413Z,56.83
2023-01-13T22:05:21.435Z,57.31
2023-01-13T22:07:24.214Z,57.23
2023-01-13T22:09:27.396Z,57.29
2023-01-13T22:11:31.681Z,57.29
2023-01-13T22:13:52.056Z,57.33
2023-01-13T22:15:55.732Z,57.17
2023-01-13T22:17:59.331Z,57.63
2023-01-13T22:20:02.455Z,57.60
2023-01-13T22:22:10.147Z,57.62
2023-01-13T22:24:13.062Z,57.58
2023-01-13T22:26:15.751Z,57.27
2023-01-13T22:28:23.989Z,57.75
2023-01-13T22:30:31.691Z,57.26
2023-01-13T22:32:36.503Z,57.24
2023-01-13T22:34:39.296Z,57.33
2023-01-13T22:36:41.989Z,57.44
2023-01-13T22:38:46.372Z,57.58
2023-01-13T22:40:56.958Z,57.66
2023-01-13T22:42:59.725Z,57.45
2023-01-13T22:45:02.416Z,57.57
2023-01-13T22:47:07.612Z,57.91
2023-01-13T22:49:12.247Z,57.68
2023-01-13T22:51:16.570Z,57.99
2023-01-13T22:53:19.857Z,57.71
2023-01-13T22:55:23.848Z,58.11
2023-01-13T22:57:26.633Z,57.63
2023-01-13T22:59:29.322Z,57.93
2023-01-13T23:01:33.874Z,57.90
2023-01-13T23:03:36.920Z,57.99
2023-01-13T23:05:43.408Z,57.94
2023-01-13T23:07:46.388Z,57.96
2023-01-13T23:09:49.052Z,58.22
2023-01-13T23:11:53.678Z,57.87
2023-01-13T23:14:00.848Z,58.23
2023-01-13T23:16:04.569Z,58.07
2023-01-13T23:18:08.253Z,57.88
2023-01-13T23:20:12.248Z,57.97
2023-01-13T23:22:15.570Z,58.36
2023-01-13T23:24:18.284Z,57.70
2023-01-13T23:26:23.444Z,57.85
2023-01-13T23:28:27.568Z,57.95
2023-01-13T23:30:30.200Z,57.99
2023-01-13T23:32:33.291Z,58.04
2023-01-13T23:34:35.919Z,58.03
2023-01-13T23:36:41.031Z,58.39
2023-01-13T23:38:43.977Z,58.00
2023-01-13T23:40:46.819Z,58.38
2023-01-13T23:42:49.631Z,58.56
2023-01-13T23:44:53.708Z,58.10
2023-01-13T23:46:56.362Z,58.09
2023-01-13T23:48:59.059Z,58.47
2023-01-13T23:51:03.868Z,58.13
2023-01-13T23:53:06.746Z,58.38
2023-01-13T23:55:11.449Z,58.51
2023-01-13T23:57:14.231Z,58.50
2023-01-13T23:59:17.159Z,58.24
